Time;durP1;ratioP1;P1;durP2;ratioP2;P2;SDS_P1;SDS_P2;PMS_P1;PMS_P2;Temp;Humidity;BMP_temperature;BMP_pressure;BME280_temperature;BME280_humidity;BME280_pressure;Samples;Min_cycle;Max_cycle;Signal;HPM_P1;HPM_P2
2022/04/17 21:29:07;;;;;;;23.88;12.65;;;10.40;65.70;;;;;;5116810;27;20355;-67
2022/04/17 21:31:33;;;;;;;26.20;13.48;;;10.20;65.70;;;;;;5100258;28;20353;-67
2022/04/17 21:33:59;;;;;;;24.67;13.18;;;10.10;67.00;;;;;;5094986;28;20060;-67
2022/04/17 21:36:24;;;;;;;23.88;12.48;;;9.90;67.80;;;;;;5093395;28;20834;-68
2022/04/17 21:38:50;;;;;;;20.35;11.65;;;10.00;68.50;;;;;;5094709;28;20048;-68
2022/04/17 21:41:19;;;;;;;22.27;11.75;;;9.90;69.40;;;;;;5099118;28;20040;-68
2022/04/17 21:43:44;;;;;;;25.73;12.07;;;9.80;69.60;;;;;;5088877;28;20044;-68
2022/04/17 21:46:10;;;;;;;20.50;11.82;;;9.80;69.80;;;;;;5082536;28;20105;-68
2022/04/17 21:48:36;;;;;;;27.15;12.95;;;9.80;70.00;;;;;;5095133;28;20048;-68
2022/04/17 21:51:02;;;;;;;23.67;12.88;;;9.80;70.40;;;;;;5072794;28;20052;-68
2022/04/17 21:53:27;;;;;;;24.58;13.65;;;9.80;70.40;;;;;;5073807;28;20071;-68
2022/04/17 21:55:53;;;;;;;30.70;14.43;;;9.70;70.60;;;;;;5086130;28;20045;-68
2022/04/17 21:58:19;;;;;;;27.92;14.38;;;9.70;71.00;;;;;;5058355;28;20113;-68
2022/04/17 22:06:16;;;;;;;24.55;13.10;;;9.60;71.00;;;;;;5069718;28;20118;-68
2022/04/17 22:08:42;;;;;;;25.08;12.93;;;9.70;70.90;;;;;;5068704;28;20057;-68
2022/04/17 22:11:07;;;;;;;26.08;12.63;;;9.60;70.90;;;;;;5089650;28;20044;-68
2022/04/17 22:13:33;;;;;;;24.40;12.73;;;9.70;71.00;;;;;;5055886;28;20062;-68
2022/04/17 22:15:59;;;;;;;20.10;12.18;;;9.80;71.00;;;;;;5072459;28;20048;-67
2022/04/17 22:18:25;;;;;;;21.58;12.10;;;9.70;70.90;;;;;;5073541;28;20124;-67
2022/04/17 22:20:50;;;;;;;23.55;11.93;;;9.70;71.30;;;;;;5052165;28;20044;-68
2022/04/17 22:23:16;;;;;;;22.58;12.60;;;9.60;71.50;;;;;;5089074;28;20063;-68
2022/04/17 22:25:42;;;;;;;22.70;12.20;;;9.60;71.60;;;;;;5076158;28;20040;-68
2022/04/17 22:28:07;;;;;;;23.52;12.88;;;9.50;71.70;;;;;;5083334;28;20060;-68
2022/04/17 22:30:33;;;;;;;26.10;13.45;;;9.50;71.80;;;;;;5081953;28;20489;-68
2022/04/17 22:32:59;;;;;;;26.25;13.52;;;9.40;72.20;;;;;;5090665;28;20147;-68
2022/04/17 22:35:26;;;;;;;25.63;14.43;;;9.40;72.30;;;;;;5071380;28;20036;-68
2022/04/17 22:37:53;;;;;;;30.95;15.43;;;9.30;72.60;;;;;;5093388;28;20061;-68
2022/04/17 22:40:18;;;;;;;32.55;16.80;;;9.30;72.70;;;;;;5073995;28;20048;-68
2022/04/17 22:42:44;;;;;;;32.38;15.90;;;9.20;73.00;;;;;;5077177;28;20036;-68
2022/04/17 22:45:13;;;;;;;37.40;16.98;;;9.20;73.10;;;;;;5064288;28;20078;-68
2022/04/17 22:47:39;;;;;;;32.08;16.55;;;9.20;73.40;;;;;;5066130;28;20048;-68
2022/04/17 22:50:06;;;;;;;34.72;16.52;;;9.10;73.40;;;;;;5079343;28;20033;-68
2022/04/17 22:52:39;;;;;;;38.72;18.02;;;9.20;74.00;;;;;;5065321;28;20119;-67
2022/04/17 22:55:07;;;;;;;40.20;18.88;;;9.20;73.70;;;;;;5032186;28;20554;-67
2022/04/17 22:57:33;;;;;;;39.45;19.17;;;9.20;73.60;;;;;;5065769;28;20033;-68
2022/04/17 22:59:58;;;;;;;41.83;18.92;;;9.20;73.60;;;;;;5082132;28;20040;-68
2022/04/17 23:02:24;;;;;;;37.05;17.02;;;9.00;74.10;;;;;;5074369;28;20037;-68
2022/04/17 23:04:50;;;;;;;29.38;15.93;;;9.10;74.50;;;;;;5063903;28;20083;-68
2022/04/17 23:07:16;;;;;;;35.72;18.35;;;9.00;74.60;;;;;;5069410;28;20098;-68
2022/04/17 23:09:42;;;;;;;36.55;17.08;;;9.00;74.70;;;;;;5056204;28;20421;-68
2022/04/17 23:12:08;;;;;;;33.63;18.15;;;8.90;74.90;;;;;;5026730;28;20388;-68
2022/04/17 23:14:34;;;;;;;37.92;18.48;;;8.90;75.30;;;;;;5056077;28;20041;-68
2022/04/17 23:17:00;;;;;;;37.70;18.23;;;8.90;75.30;;;;;;5077262;28;20044;-68
2022/04/17 23:19:26;;;;;;;38.20;18.73;;;8.90;75.40;;;;;;5065860;28;20036;-68
2022/04/17 23:21:51;;;;;;;38.80;18.30;;;9.00;75.50;;;;;;5053665;28;20119;-68
2022/04/17 23:24:17;;;;;;;32.72;17.55;;;8.90;75.80;;;;;;5058111;28;20477;-68
2022/04/17 23:26:43;;;;;;;38.50;16.95;;;8.90;75.80;;;;;;5071621;28;20446;-68
2022/04/17 23:29:10;;;;;;;32.50;17.52;;;8.90;75.80;;;;;;5062576;28;20540;-68
2022/04/17 23:31:35;;;;;;;31.67;16.15;;;8.90;75.90;;;;;;5058626;28;20045;-68
2022/04/17 23:34:01;;;;;;;29.33;15.95;;;8.80;76.60;;;;;;5056606;28;20043;-68
2022/04/17 23:36:27;;;;;;;29.60;16.48;;;8.60;77.10;;;;;;5078333;28;20044;-68
2022/04/17 23:38:54;;;;;;;32.38;16.35;;;8.60;77.20;;;;;;5045660;28;20181;-68
2022/04/17 23:41:19;;;;;;;31.85;16.00;;;8.50;77.70;;;;;;5063011;28;20492;-68
2022/04/17 23:43:45;;;;;;;28.58;15.80;;;8.50;77.60;;;;;;5062218;28;20043;-68
2022/04/17 23:46:10;;;;;;;32.63;17.15;;;8.50;77.60;;;;;;5071527;28;20043;-68
2022/04/17 23:48:36;;;;;;;29.85;16.25;;;8.50;77.60;;;;;;5076528;28;20407;-68
2022/04/17 23:51:02;;;;;;;32.65;17.13;;;8.50;77.70;;;;;;5071074;28;20047;-68
2022/04/17 23:53:27;;;;;;;31.58;15.68;;;8.70;77.70;;;;;;5062569;28;20074;-68
2022/04/17 23:55:53;;;;;;;30.15;16.33;;;8.50;77.90;;;;;;5064591;28;20043;-68
2022/04/17 23:58:19;;;;;;;26.63;15.15;;;8.50;78.30;;;;;;5073927;28;20053;-68
